Time;durP1;ratioP1;P1;durP2;ratioP2;P2;SDS_P1;SDS_P2;PMS_P1;PMS_P2;Temp;Humidity;BMP_temperature;BMP_pressure;BME280_temperature;BME280_humidity;BME280_pressure;Samples;Min_cycle;Max_cycle;Signal;HPM_P1;HPM_P2
2022/06/10 00:02:22;;;;;;;13.23;4.28;;;;;;;;;;4966796;28;20775;-68
2022/06/10 00:04:48;;;;;;;12.82;3.70;;;;;;;;;;4967775;28;20047;-69
2022/06/10 00:07:14;;;;;;;10.32;3.90;;;;;;;;;;4953881;28;20055;-69
2022/06/10 00:09:40;;;;;;;13.13;3.53;;;;;;;;;;4967441;28;20055;-69
2022/06/10 00:12:06;;;;;;;13.95;4.05;;;;;;;;;;4967345;28;20043;-70
2022/06/10 00:14:32;;;;;;;10.43;3.72;;;;;;;;;;4965339;28;20039;-68
2022/06/10 00:16:58;;;;;;;12.25;4.32;;;;;;;;;;4968034;28;20093;-69
2022/06/10 00:19:24;;;;;;;12.93;4.35;;;;;;;;;;4970725;28;20050;-69
2022/06/10 00:21:49;;;;;;;10.55;3.92;;;;;;;;;;4970876;28;20362;-69
2022/06/10 00:24:15;;;;;;;11.88;4.63;;;;;;;;;;4966321;28;20066;-69
2022/06/10 00:26:41;;;;;;;16.13;4.18;;;;;;;;;;4970204;28;20050;-70
2022/06/10 00:29:07;;;;;;;10.05;3.60;;;;;;;;;;4969004;28;20039;-69
2022/06/10 00:31:33;;;;;;;8.52;3.90;;;;;;;;;;4970709;28;20054;-68
2022/06/10 00:33:58;;;;;;;11.60;4.38;;;;;;;;;;4971088;28;20046;-71
2022/06/10 00:36:24;;;;;;;12.80;4.07;;;;;;;;;;4966617;28;20043;-68
2022/06/10 00:38:50;;;;;;;11.18;3.90;;;;;;;;;;4971187;28;20051;-69
2022/06/10 00:41:16;;;;;;;10.50;3.80;;;;;;;;;;4967262;28;20046;-70
2022/06/10 00:43:42;;;;;;;8.10;3.80;;;;;;;;;;4970281;28;20105;-69
2022/06/10 00:46:44;;;;;;;11.35;3.65;;;;;;;;;;4970410;28;20046;-70
2022/06/10 00:49:13;;;;;;;8.27;3.78;;;;;;;;;;4911197;29;20348;-69
2022/06/10 00:51:45;;;;;;;12.25;4.45;;;;;;;;;;4909901;29;20059;-69
2022/06/10 00:54:28;;;;;;;12.88;4.20;;;;;;;;;;4907324;29;20111;-70
2022/06/10 00:57:19;;;;;;;14.95;4.30;;;;;;;;;;4909509;29;20206;-68
2022/06/10 00:59:58;;;;;;;10.35;3.70;;;;;;;;;;4908967;29;20131;-68
2022/06/10 01:02:27;;;;;;;12.55;4.07;;;;;;;;;;4908895;29;20055;-70
2022/06/10 01:04:55;;;;;;;12.45;4.10;;;;;;;;;;4909246;29;20071;-70
2022/06/10 01:07:29;;;;;;;12.13;4.25;;;;;;;;;;4910489;29;20111;-67
2022/06/10 01:09:55;;;;;;;;;;;;;;;;;;4909293;29;20052;-68
2022/06/10 01:13:05;;;;;;;13.88;4.43;;;;;;;;;;4909039;29;19930;-68
2022/06/10 01:15:43;;;;;;;11.77;4.38;;;;;;;;;;4890989;29;20049;-70
2022/06/10 01:18:27;;;;;;;15.60;4.47;;;;;;;;;;4908853;29;20047;-70
2022/06/10 01:21:24;;;;;;;13.95;4.47;;;;;;;;;;4910342;29;20066;-69
2022/06/10 01:24:30;;;;;;;15.45;4.35;;;;;;;;;;4951908;28;20054;-69
2022/06/10 01:27:48;;;;;;;14.90;4.40;;;;;;;;;;4967166;28;20059;-68
2022/06/10 01:30:49;;;;;;;13.77;4.00;;;;;;;;;;4969870;28;20534;-68
2022/06/10 01:33:26;;;;;;;10.45;4.75;;;;;;;;;;4965552;28;20056;-68
2022/06/10 01:36:14;;;;;;;14.13;4.63;;;;;;;;;;4969386;28;20491;-68
2022/06/10 01:38:51;;;;;;;9.60;4.70;;;;;;;;;;4966238;28;20058;-69
2022/06/10 01:41:23;;;;;;;13.52;5.00;;;;;;;;;;4968383;28;20066;-68
2022/06/10 01:44:10;;;;;;;10.77;4.40;;;;;;;;;;4969178;28;20042;-69
2022/06/10 01:46:48;;;;;;;12.25;4.15;;;;;;;;;;4964192;28;20061;-70
2022/06/10 01:49:19;;;;;;;10.50;4.03;;;;;;;;;;4966689;28;20101;-70
2022/06/10 01:51:53;;;;;;;14.70;4.38;;;;;;;;;;4963176;28;20102;-69
2022/06/10 01:54:31;;;;;;;11.70;4.28;;;;;;;;;;4969376;28;20047;-69
2022/06/10 01:57:00;;;;;;;11.80;4.55;;;;;;;;;;4964052;28;20050;-67
2022/06/10 01:59:32;;;;;;;12.75;4.20;;;;;;;;;;4968645;28;20046;-70
2022/06/10 02:02:14;;;;;;;10.57;4.40;;;;;;;;;;4963035;28;20051;-68
2022/06/10 02:04:55;;;;;;;13.63;4.40;;;;;;;;;;4965606;28;20116;-69
2022/06/10 02:07:43;;;;;;;12.63;3.88;;;;;;;;;;4964320;28;20051;-68
2022/06/10 02:10:24;;;;;;;9.48;4.40;;;;;;;;;;4968131;28;20050;-69
2022/06/10 02:12:55;;;;;;;11.80;4.78;;;;;;;;;;4968052;28;20045;-69
2022/06/10 02:15:32;;;;;;;8.82;4.10;;;;;;;;;;4968557;28;20047;-68
2022/06/10 02:18:08;;;;;;;8.00;4.30;;;;;;;;;;4969035;28;20047;-68
2022/06/10 02:20:36;;;;;;;10.20;4.15;;;;;;;;;;4968822;28;20057;-68
2022/06/10 02:23:08;;;;;;;11.55;3.90;;;;;;;;;;4969185;28;20042;-68
2022/06/10 02:25:47;;;;;;;9.93;3.40;;;;;;;;;;4965637;28;20494;-69
2022/06/10 02:28:19;;;;;;;7.35;3.42;;;;;;;;;;4969064;28;20057;-69
2022/06/10 02:31:04;;;;;;;9.15;3.45;;;;;;;;;;4968371;28;20437;-69
2022/06/10 02:33:30;;;;;;;11.07;3.80;;;;;;;;;;4969045;28;20093;-68
2022/06/10 02:36:22;;;;;;;9.85;3.90;;;;;;;;;;4967625;28;20100;-68
2022/06/10 02:39:13;;;;;;;8.60;3.67;;;;;;;;;;4957079;28;20055;-70
2022/06/10 02:41:45;;;;;;;9.07;3.20;;;;;;;;;;4960010;28;20047;-68
2022/06/10 02:44:32;;;;;;;11.60;3.80;;;;;;;;;;4967776;28;20105;-68
2022/06/10 02:47:14;;;;;;;7.43;3.10;;;;;;;;;;4963017;28;20075;-70
2022/06/10 02:49:41;;;;;;;14.50;3.60;;;;;;;;;;4968445;28;20078;-71
2022/06/10 02:52:10;;;;;;;5.90;3.13;;;;;;;;;;4968693;28;20136;-68
2022/06/10 02:54:39;;;;;;;7.65;3.35;;;;;;;;;;4968323;28;20803;-68
2022/06/10 02:57:16;;;;;;;8.88;2.95;;;;;;;;;;4965696;28;20150;-67
2022/06/10 03:02:49;;;;;;;6.55;2.80;;;;;;;;;;4967196;28;20055;-68
2022/06/10 03:05:33;;;;;;;9.18;3.40;;;;;;;;;;4961601;28;20054;-68
2022/06/10 03:08:14;;;;;;;10.65;3.65;;;;;;;;;;4968200;28;20122;-69
2022/06/10 03:11:15;;;;;;;8.23;3.53;;;;;;;;;;4967816;28;20492;-68
2022/06/10 03:13:41;;;;;;;6.38;3.50;;;;;;;;;;4966228;28;20058;-68
2022/06/10 03:16:13;;;;;;;8.63;3.08;;;;;;;;;;4966583;28;20053;-68
2022/06/10 03:18:41;;;;;;;7.78;3.40;;;;;;;;;;4964974;28;20035;-69
2022/06/10 03:21:15;;;;;;;5.90;3.20;;;;;;;;;;4968064;28;20042;-70
2022/06/10 03:23:55;;;;;;;5.65;3.05;;;;;;;;;;4966553;28;20101;-69
2022/06/10 03:26:40;;;;;;;7.70;3.15;;;;;;;;;;4961850;28;20058;-70
2022/06/10 03:29:25;;;;;;;7.10;3.13;;;;;;;;;;4968054;28;20051;-70
2022/06/10 03:31:58;;;;;;;6.63;2.88;;;;;;;;;;4966018;28;20082;-67
2022/06/10 03:34:31;;;;;;;11.40;3.20;;;;;;;;;;4968576;28;20189;-68
2022/06/10 03:36:59;;;;;;;9.00;3.30;;;;;;;;;;4967105;28;20113;-67
2022/06/10 03:39:26;;;;;;;6.05;2.70;;;;;;;;;;4964248;28;20513;-68
2022/06/10 03:41:57;;;;;;;5.72;3.00;;;;;;;;;;4967029;28;20078;-67
2022/06/10 03:44:24;;;;;;;6.68;3.05;;;;;;;;;;4966724;28;20061;-69
2022/06/10 03:46:51;;;;;;;9.27;3.30;;;;;;;;;;4958639;28;20472;-68
2022/06/10 03:49:21;;;;;;;6.03;2.92;;;;;;;;;;4967483;28;20074;-67
2022/06/10 03:51:47;;;;;;;6.07;3.03;;;;;;;;;;4967768;28;20428;-68
2022/06/10 03:54:18;;;;;;;6.82;3.15;;;;;;;;;;4970962;28;20070;-69
2022/06/10 03:56:44;;;;;;;7.18;3.15;;;;;;;;;;4967426;28;20759;-69
2022/06/10 03:59:10;;;;;;;9.88;2.90;;;;;;;;;;4972539;28;20050;-69
2022/06/10 04:01:37;;;;;;;6.55;2.60;;;;;;;;;;4968310;28;20436;-70
2022/06/10 04:04:03;;;;;;;10.90;3.17;;;;;;;;;;4970321;28;20406;-68
2022/06/10 04:06:29;;;;;;;6.45;3.10;;;;;;;;;;4969776;28;20065;-70
2022/06/10 04:08:55;;;;;;;6.25;2.72;;;;;;;;;;4971622;28;20526;-69
2022/06/10 04:11:21;;;;;;;7.68;3.00;;;;;;;;;;4968944;28;20047;-69
2022/06/10 04:13:47;;;;;;;11.45;2.85;;;;;;;;;;4972414;28;20050;-69
2022/06/10 04:16:12;;;;;;;4.97;3.10;;;;;;;;;;4971025;28;20043;-69
2022/06/10 04:18:38;;;;;;;8.13;3.05;;;;;;;;;;4970468;28;20051;-69
2022/06/10 04:21:06;;;;;;;11.52;3.50;;;;;;;;;;4969505;28;20046;-68
2022/06/10 04:23:32;;;;;;;5.50;3.03;;;;;;;;;;4966406;28;20365;-68
2022/06/10 04:25:58;;;;;;;7.63;3.50;;;;;;;;;;4968272;28;20039;-68
2022/06/10 04:28:24;;;;;;;7.20;3.00;;;;;;;;;;4971314;28;20038;-67
2022/06/10 04:30:52;;;;;;;4.53;2.97;;;;;;;;;;4970069;28;20129;-68
2022/06/10 04:33:19;;;;;;;9.95;3.13;;;;;;;;;;4970538;28;20050;-69
2022/06/10 04:35:47;;;;;;;10.18;2.90;;;;;;;;;;4971840;28;20047;-69
2022/06/10 04:38:15;;;;;;;9.15;3.25;;;;;;;;;;4972504;28;20035;-70
2022/06/10 04:40:41;;;;;;;9.45;3.05;;;;;;;;;;4970595;28;20170;-69
2022/06/10 04:43:08;;;;;;;8.35;3.33;;;;;;;;;;4964010;28;20051;-69
2022/06/10 04:45:41;;;;;;;9.48;3.25;;;;;;;;;;4967305;28;20050;-69
2022/06/10 04:48:07;;;;;;;6.70;3.03;;;;;;;;;;4960379;28;20113;-67
2022/06/10 04:50:33;;;;;;;8.07;3.00;;;;;;;;;;4962295;28;20061;-69
2022/06/10 04:52:59;;;;;;;7.40;3.58;;;;;;;;;;4964260;28;20424;-69
2022/06/10 04:55:27;;;;;;;11.90;3.45;;;;;;;;;;4969694;28;20059;-67
2022/06/10 04:57:54;;;;;;;8.27;3.63;;;;;;;;;;4964792;28;20043;-69
2022/06/10 05:00:24;;;;;;;10.82;3.40;;;;;;;;;;4971174;28;20046;-69
2022/06/10 05:02:50;;;;;;;6.10;3.38;;;;;;;;;;4963688;28;20043;-68
2022/06/10 05:05:16;;;;;;;9.75;3.42;;;;;;;;;;4968212;28;20077;-68
2022/06/10 05:07:42;;;;;;;9.68;4.10;;;;;;;;;;4970567;28;20514;-71
2022/06/10 05:10:10;;;;;;;9.02;3.10;;;;;;;;;;4971355;28;20528;-69
2022/06/10 05:12:36;;;;;;;8.82;3.75;;;;;;;;;;4971258;28;20050;-70
2022/06/10 05:15:01;;;;;;;11.63;4.88;;;;;;;;;;4970544;28;20053;-72
2022/06/10 05:17:27;;;;;;;10.45;3.67;;;;;;;;;;4968860;28;20034;-68
2022/06/10 05:19:53;;;;;;;7.20;4.18;;;;;;;;;;4969706;28;20064;-69
2022/06/10 05:22:19;;;;;;;8.57;3.28;;;;;;;;;;4968118;28;20047;-69
2022/06/10 05:24:45;;;;;;;6.03;3.25;;;;;;;;;;4968869;28;20113;-68
2022/06/10 05:27:10;;;;;;;9.60;3.40;;;;;;;;;;4964877;28;20469;-69
2022/06/10 05:29:37;;;;;;;6.10;3.08;;;;;;;;;;4970899;28;20047;-69
2022/06/10 05:32:03;;;;;;;7.95;3.50;;;;;;;;;;4970409;28;20098;-69
2022/06/10 05:34:44;;;;;;;10.00;3.83;;;;;;;;;;4969943;28;20047;-69
2022/06/10 05:37:16;;;;;;;5.15;2.78;;;;;;;;;;4966294;28;20063;-72
2022/06/10 05:39:42;;;;;;;10.50;3.05;;;;;;;;;;4967313;28;20555;-70
2022/06/10 05:42:09;;;;;;;10.20;3.53;;;;;;;;;;4968948;28;20126;-69
2022/06/10 05:44:39;;;;;;;8.80;3.80;;;;;;;;;;4967865;28;20083;-70
2022/06/10 05:47:08;;;;;;;10.63;3.80;;;;;;;;;;4968128;28;20145;-71
2022/06/10 05:49:37;;;;;;;10.45;4.20;;;;;;;;;;4969487;28;20105;-68
2022/06/10 05:52:05;;;;;;;8.50;3.78;;;;;;;;;;4969917;28;20504;-69
2022/06/10 05:54:34;;;;;;;10.77;3.75;;;;;;;;;;4969951;28;20129;-69
2022/06/10 05:57:00;;;;;;;12.30;4.10;;;;;;;;;;4966336;28;20050;-68
2022/06/10 05:59:29;;;;;;;11.10;4.45;;;;;;;;;;4970160;28;20118;-68
2022/06/10 06:01:56;;;;;;;11.00;3.63;;;;;;;;;;4963824;28;20074;-70
2022/06/10 06:04:23;;;;;;;9.27;4.28;;;;;;;;;;4965665;28;20039;-70
2022/06/10 06:06:48;;;;;;;13.20;4.70;;;;;;;;;;4960941;28;20039;-72
2022/06/10 06:09:15;;;;;;;8.07;4.18;;;;;;;;;;4967766;28;20038;-70
2022/06/10 06:11:41;;;;;;;9.98;4.38;;;;;;;;;;4969096;28;20058;-68
2022/06/10 06:14:07;;;;;;;12.10;4.10;;;;;;;;;;4970210;28;20039;-71
2022/06/10 06:16:35;;;;;;;8.85;4.43;;;;;;;;;;4968851;28;20059;-71
2022/06/10 06:19:01;;;;;;;13.52;4.40;;;;;;;;;;4969226;28;20046;-69
2022/06/10 06:21:27;;;;;;;17.50;4.97;;;;;;;;;;4963999;28;20059;-70
2022/06/10 06:23:53;;;;;;;13.15;4.57;;;;;;;;;;4960950;28;20047;-70
2022/06/10 06:26:19;;;;;;;17.38;5.05;;;;;;;;;;4966607;28;20450;-70
2022/06/10 06:28:45;;;;;;;10.63;4.82;;;;;;;;;;4962964;28;20404;-70
2022/06/10 06:31:11;;;;;;;14.00;4.85;;;;;;;;;;4966962;28;20042;-67
2022/06/10 06:33:37;;;;;;;14.60;5.47;;;;;;;;;;4966642;28;20059;-67
2022/06/10 06:36:04;;;;;;;9.35;5.00;;;;;;;;;;4968431;28;20070;-69
2022/06/10 06:38:31;;;;;;;10.40;4.78;;;;;;;;;;4962924;28;20043;-68
2022/06/10 06:40:57;;;;;;;9.25;4.88;;;;;;;;;;4964115;28;20057;-68
2022/06/10 06:43:22;;;;;;;12.07;5.03;;;;;;;;;;4964819;28;20131;-68
2022/06/10 06:45:48;;;;;;;21.23;5.95;;;;;;;;;;4968727;28;20046;-71
2022/06/10 06:48:15;;;;;;;12.73;4.97;;;;;;;;;;4968273;28;20187;-69
2022/06/10 06:50:48;;;;;;;14.80;5.88;;;;;;;;;;4967101;28;20481;-69
2022/06/10 06:53:14;;;;;;;14.38;5.25;;;;;;;;;;4962374;28;20427;-72
2022/06/10 06:55:41;;;;;;;12.38;5.38;;;;;;;;;;4952906;28;20138;-69
2022/06/10 06:58:11;;;;;;;13.32;5.93;;;;;;;;;;4966889;28;20216;-71
2022/06/10 07:00:36;;;;;;;18.48;5.55;;;;;;;;;;4967292;28;20493;-70
2022/06/10 07:03:04;;;;;;;16.60;5.78;;;;;;;;;;4963731;28;20061;-69
2022/06/10 07:05:31;;;;;;;13.98;5.30;;;;;;;;;;4964296;28;20413;-71
2022/06/10 07:07:58;;;;;;;21.42;5.68;;;;;;;;;;4965574;28;20113;-70
2022/06/10 07:10:25;;;;;;;11.13;5.85;;;;;;;;;;4967039;28;20042;-71
2022/06/10 07:12:51;;;;;;;14.98;5.78;;;;;;;;;;4968491;28;20054;-70
2022/06/10 07:15:18;;;;;;;18.38;6.07;;;;;;;;;;4966762;28;20054;-70
2022/06/10 07:17:44;;;;;;;15.52;6.25;;;;;;;;;;4967726;28;20187;-70
2022/06/10 07:20:19;;;;;;;12.52;5.93;;;;;;;;;;4967791;28;20038;-69
2022/06/10 07:22:45;;;;;;;14.05;5.97;;;;;;;;;;4967024;28;20051;-69
2022/06/10 07:25:12;;;;;;;15.68;6.00;;;;;;;;;;4968521;28;20404;-69
2022/06/10 07:27:38;;;;;;;13.15;5.55;;;;;;;;;;4968589;28;20365;-70
2022/06/10 07:30:05;;;;;;;12.82;5.38;;;;;;;;;;4968867;28;20061;-69
2022/06/10 07:32:31;;;;;;;9.57;5.43;;;;;;;;;;4967036;28;20047;-72
2022/06/10 07:34:57;;;;;;;16.15;5.80;;;;;;;;;;4968208;28;20053;-70
2022/06/10 07:37:23;;;;;;;12.68;5.25;;;;;;;;;;4967971;28;20051;-69
2022/06/10 07:39:49;;;;;;;17.38;6.00;;;;;;;;;;4966257;28;20035;-70
2022/06/10 07:42:15;;;;;;;17.83;7.68;;;;;;;;;;4963327;28;20077;-71
2022/06/10 07:44:41;;;;;;;19.58;6.82;;;;;;;;;;4965273;28;20047;-69
2022/06/10 07:47:12;;;;;;;10.65;5.18;;;;;;;;;;4966482;28;20053;-69
2022/06/10 07:49:38;;;;;;;13.52;5.13;;;;;;;;;;4962205;28;20118;-69
2022/06/10 07:52:06;;;;;;;12.35;5.28;;;;;;;;;;4962991;28;20047;-70
2022/06/10 07:54:34;;;;;;;12.15;5.57;;;;;;;;;;4961632;28;20052;-70
2022/06/10 07:57:01;;;;;;;10.43;4.85;;;;;;;;;;4963353;28;20798;-68
2022/06/10 07:59:27;;;;;;;13.98;5.20;;;;;;;;;;4963778;28;20047;-68
2022/06/10 08:01:53;;;;;;;15.77;5.53;;;;;;;;;;4962682;28;20047;-70
2022/06/10 08:04:20;;;;;;;10.10;4.53;;;;;;;;;;4965238;28;20063;-72
2022/06/10 08:06:46;;;;;;;13.43;4.93;;;;;;;;;;4965766;28;20042;-70
2022/06/10 08:09:12;;;;;;;8.75;4.25;;;;;;;;;;4965173;28;20043;-70
2022/06/10 08:11:39;;;;;;;12.45;4.57;;;;;;;;;;4966806;28;20051;-70
2022/06/10 08:14:06;;;;;;;10.15;4.78;;;;;;;;;;4962791;28;20457;-70
2022/06/10 08:16:33;;;;;;;9.43;4.22;;;;;;;;;;4966738;28;20043;-67
2022/06/10 08:18:59;;;;;;;10.23;4.25;;;;;;;;;;4963099;28;20459;-69
2022/06/10 08:24:10;;;;;;;;;;;;;;;;;;4962467;28;20045;-70
2022/06/10 08:26:36;;;;;;;11.93;3.95;;;;;;;;;;4960215;28;19926;-71
2022/06/10 08:29:03;;;;;;;12.45;4.32;;;;;;;;;;4964497;28;20153;-70
2022/06/10 08:31:29;;;;;;;11.48;4.40;;;;;;;;;;4965931;28;20038;-70
2022/06/10 08:33:57;;;;;;;11.27;4.95;;;;;;;;;;4966585;28;20050;-71
2022/06/10 08:36:23;;;;;;;11.70;4.50;;;;;;;;;;4961034;28;20047;-73
2022/06/10 08:38:49;;;;;;;12.55;4.40;;;;;;;;;;4970025;28;20047;-70
2022/06/10 08:41:23;;;;;;;14.05;4.70;;;;;;;;;;4966331;28;20105;-70
2022/06/10 08:44:04;;;;;;;10.63;4.60;;;;;;;;;;4965557;28;20054;-70
2022/06/10 08:46:56;;;;;;;11.52;4.40;;;;;;;;;;4967083;28;20086;-70
2022/06/10 08:50:04;;;;;;;13.50;4.68;;;;;;;;;;4965004;28;20055;-71
2022/06/10 08:52:41;;;;;;;12.50;4.75;;;;;;;;;;4904199;29;20124;-70
2022/06/10 08:55:48;;;;;;;16.42;5.53;;;;;;;;;;4892691;29;20521;-71
2022/06/10 08:58:27;;;;;;;16.45;5.07;;;;;;;;;;4872973;29;20184;-72
2022/06/10 09:00:59;;;;;;;14.57;4.72;;;;;;;;;;4871619;29;20151;-72
2022/06/10 09:03:30;;;;;;;11.88;5.18;;;;;;;;;;4874076;29;20064;-72
2022/06/10 09:06:00;;;;;;;11.65;5.03;;;;;;;;;;4870119;29;20072;-71
2022/06/10 09:08:37;;;;;;;10.27;4.53;;;;;;;;;;4868066;29;20438;-69
2022/06/10 09:11:35;;;;;;;16.83;5.00;;;;;;;;;;4869601;29;20076;-70
2022/06/10 09:14:22;;;;;;;10.38;4.25;;;;;;;;;;4871021;29;20045;-70
2022/06/10 09:17:17;;;;;;;14.77;4.20;;;;;;;;;;4869967;29;20045;-70
2022/06/10 09:20:19;;;;;;;11.07;4.10;;;;;;;;;;4872820;29;20067;-69
2022/06/10 09:22:53;;;;;;;15.00;4.25;;;;;;;;;;4834310;29;20179;-68
2022/06/10 09:25:41;;;;;;;12.48;4.40;;;;;;;;;;4873451;29;20140;-70
2022/06/10 09:28:07;;;;;;;11.50;4.35;;;;;;;;;;4877034;29;20096;-70
2022/06/10 09:30:36;;;;;;;14.35;4.63;;;;;;;;;;4965829;28;20046;-70
2022/06/10 09:33:18;;;;;;;12.35;4.72;;;;;;;;;;4969076;28;20057;-71
2022/06/10 09:35:54;;;;;;;11.00;4.90;;;;;;;;;;4957843;28;20051;-70
2022/06/10 09:38:38;;;;;;;11.77;4.55;;;;;;;;;;4969003;28;20054;-71
2022/06/10 09:41:28;;;;;;;13.57;5.10;;;;;;;;;;4970693;28;20140;-68
2022/06/10 09:44:00;;;;;;;18.20;4.70;;;;;;;;;;4968433;28;20527;-71
2022/06/10 09:46:34;;;;;;;19.85;4.53;;;;;;;;;;4969694;28;20200;-71
2022/06/10 09:49:19;;;;;;;;;;;;;;;;;;4958760;28;20034;-68
2022/06/10 09:52:27;;;;;;;10.48;3.67;;;;;;;;;;4964940;28;19933;-70
2022/06/10 09:56:00;;;;;;;12.05;4.45;;;;;;;;;;4950755;28;20113;-71
2022/06/10 09:58:44;;;;;;;14.35;4.20;;;;;;;;;;4887938;29;20119;-71
2022/06/10 10:01:13;;;;;;;10.48;4.00;;;;;;;;;;4886416;29;20438;-72
2022/06/10 10:03:58;;;;;;;11.82;3.33;;;;;;;;;;4888431;29;20060;-70
2022/06/10 10:06:47;;;;;;;15.52;3.53;;;;;;;;;;4889563;29;20918;-71
2022/06/10 10:09:25;;;;;;;11.13;3.47;;;;;;;;;;4889623;29;20407;-72
2022/06/10 10:12:09;;;;;;;12.50;3.55;;;;;;;;;;4890250;29;20054;-71
2022/06/10 10:14:59;;;;;;;9.43;3.58;;;;;;;;;;4890342;29;20066;-69
2022/06/10 10:17:49;;;;;;;7.88;3.60;;;;;;;;;;4890111;29;20127;-71
2022/06/10 10:20:20;;;;;;;11.07;3.30;;;;;;;;;;4888048;29;20048;-72
2022/06/10 10:23:08;;;;;;;15.75;4.05;;;;;;;;;;4888740;29;20084;-71
2022/06/10 10:25:34;;;;;;;7.72;3.40;;;;;;;;;;4889999;29;20076;-71
2022/06/10 10:28:06;;;;;;;9.32;3.80;;;;;;;;;;4897815;29;20087;-72
2022/06/10 10:30:43;;;;;;;9.52;3.42;;;;;;;;;;4947150;29;20050;-70
2022/06/10 10:33:12;;;;;;;12.65;3.40;;;;;;;;;;4946315;29;20051;-70
2022/06/10 10:35:45;;;;;;;7.70;3.40;;;;;;;;;;4964612;28;20437;-71
2022/06/10 10:38:15;;;;;;;10.77;3.28;;;;;;;;;;4967765;28;20047;-71
2022/06/10 10:40:46;;;;;;;10.55;3.50;;;;;;;;;;4968627;28;20616;-74
2022/06/10 10:43:23;;;;;;;8.73;3.58;;;;;;;;;;4967009;28;20055;-70
2022/06/10 10:46:05;;;;;;;10.95;3.40;;;;;;;;;;4969006;28;20121;-71
2022/06/10 10:48:43;;;;;;;7.78;2.90;;;;;;;;;;4967163;28;20078;-73
2022/06/10 10:51:09;;;;;;;9.45;2.97;;;;;;;;;;4967350;28;20039;-71
2022/06/10 10:53:49;;;;;;;8.95;3.00;;;;;;;;;;4968783;28;20210;-70
2022/06/10 10:56:16;;;;;;;8.05;3.22;;;;;;;;;;4966903;28;20047;-71
2022/06/10 10:58:55;;;;;;;7.90;2.90;;;;;;;;;;4969105;28;20054;-71
2022/06/10 11:01:43;;;;;;;12.65;3.80;;;;;;;;;;4967029;28;20047;-72
2022/06/10 11:04:11;;;;;;;8.50;3.80;;;;;;;;;;4965306;28;20137;-72
2022/06/10 11:06:38;;;;;;;10.38;3.33;;;;;;;;;;4966952;28;20488;-69
2022/06/10 11:09:50;;;;;;;7.63;3.20;;;;;;;;;;4966537;28;20046;-70
2022/06/10 11:12:26;;;;;;;9.57;3.53;;;;;;;;;;4945873;28;20539;-71
2022/06/10 11:15:11;;;;;;;7.68;3.70;;;;;;;;;;4967296;28;20177;-70
2022/06/10 11:17:41;;;;;;;12.95;4.15;;;;;;;;;;4968006;28;20054;-69
2022/06/10 11:20:16;;;;;;;12.07;3.50;;;;;;;;;;4963244;28;20086;-70
2022/06/10 11:22:44;;;;;;;6.68;3.20;;;;;;;;;;4959283;28;20051;-72
2022/06/10 11:25:30;;;;;;;10.63;3.53;;;;;;;;;;4965142;28;20082;-71
2022/06/10 11:28:00;;;;;;;12.45;4.22;;;;;;;;;;4959104;28;20047;-69
2022/06/10 11:30:42;;;;;;;8.40;3.63;;;;;;;;;;4966611;28;20061;-72
2022/06/10 11:33:24;;;;;;;7.07;3.60;;;;;;;;;;4968306;28;20408;-71
2022/06/10 11:36:07;;;;;;;11.93;3.97;;;;;;;;;;4964330;28;20437;-71
2022/06/10 11:38:37;;;;;;;7.45;3.47;;;;;;;;;;4962036;28;20066;-71
2022/06/10 11:41:28;;;;;;;12.45;4.38;;;;;;;;;;4966939;28;20157;-70
2022/06/10 11:44:16;;;;;;;10.70;4.60;;;;;;;;;;4967046;28;20054;-71
2022/06/10 11:47:02;;;;;;;18.58;5.20;;;;;;;;;;4966400;28;20066;-71
2022/06/10 11:49:57;;;;;;;15.30;5.40;;;;;;;;;;4964127;28;20058;-71
2022/06/10 11:52:34;;;;;;;11.48;4.40;;;;;;;;;;4947550;28;20046;-70
2022/06/10 11:55:11;;;;;;;12.05;4.95;;;;;;;;;;4967221;28;20053;-70
2022/06/10 12:00:38;;;;;;;9.65;3.83;;;;;;;;;;4962695;28;20054;-70
2022/06/10 12:03:22;;;;;;;11.63;4.45;;;;;;;;;;4967216;28;20057;-70
2022/06/10 12:06:10;;;;;;;8.77;4.63;;;;;;;;;;4965066;28;20065;-71
2022/06/10 12:08:51;;;;;;;11.38;4.60;;;;;;;;;;4968178;28;20065;-70
2022/06/10 12:11:35;;;;;;;12.55;4.53;;;;;;;;;;4965756;28;20051;-71
2022/06/10 12:14:14;;;;;;;12.30;4.13;;;;;;;;;;4971485;28;20488;-73
2022/06/10 12:16:43;;;;;;;13.60;5.30;;;;;;;;;;4959723;28;20137;-72
2022/06/10 12:19:16;;;;;;;23.40;9.55;;;;;;;;;;4971378;28;20074;-72
2022/06/10 12:21:42;;;;;;;12.55;4.30;;;;;;;;;;4968729;28;20054;-70
2022/06/10 12:24:20;;;;;;;10.57;3.78;;;;;;;;;;4964397;28;20114;-70
2022/06/10 12:27:00;;;;;;;8.00;3.80;;;;;;;;;;4970676;28;20074;-71
2022/06/10 12:29:41;;;;;;;8.77;2.72;;;;;;;;;;4969078;28;20280;-70
2022/06/10 12:32:19;;;;;;;15.57;3.13;;;;;;;;;;4960572;28;20134;-73
2022/06/10 12:34:59;;;;;;;10.93;2.75;;;;;;;;;;4967812;28;20047;-71
2022/06/10 12:37:29;;;;;;;9.95;2.80;;;;;;;;;;4960876;28;20378;-72
2022/06/10 12:40:02;;;;;;;10.23;2.85;;;;;;;;;;4970234;28;20404;-71
2022/06/10 12:42:37;;;;;;;10.40;2.75;;;;;;;;;;4970319;28;20194;-69
2022/06/10 12:45:05;;;;;;;8.93;2.30;;;;;;;;;;4970125;28;20951;-70
2022/06/10 12:47:36;;;;;;;7.25;2.47;;;;;;;;;;4971083;28;20158;-70
2022/06/10 12:50:19;;;;;;;12.68;2.90;;;;;;;;;;4969770;28;20054;-73
2022/06/10 12:53:12;;;;;;;11.93;2.25;;;;;;;;;;4971581;28;20069;-70
2022/06/10 12:55:54;;;;;;;10.57;2.50;;;;;;;;;;4964152;28;20046;-71
2022/06/10 12:58:38;;;;;;;8.90;2.38;;;;;;;;;;4971564;28;20472;-70
2022/06/10 13:01:30;;;;;;;9.10;2.08;;;;;;;;;;4967101;28;20121;-70
2022/06/10 13:04:00;;;;;;;9.68;2.50;;;;;;;;;;4934586;28;20640;-71
2022/06/10 13:06:43;;;;;;;11.18;2.60;;;;;;;;;;4963083;28;20089;-70
2022/06/10 13:09:15;;;;;;;10.98;2.75;;;;;;;;;;4970344;28;20058;-72
2022/06/10 13:12:08;;;;;;;12.43;2.50;;;;;;;;;;4963239;28;20182;-72
2022/06/10 13:14:43;;;;;;;8.43;2.37;;;;;;;;;;4969436;28;20129;-70
2022/06/10 13:17:35;;;;;;;8.35;2.38;;;;;;;;;;4956195;28;20750;-69
2022/06/10 13:20:15;;;;;;;6.78;2.13;;;;;;;;;;4964577;28;20052;-71
2022/06/10 13:22:41;;;;;;;11.88;3.08;;;;;;;;;;4968080;28;20053;-71
2022/06/10 13:25:07;;;;;;;12.93;2.60;;;;;;;;;;4960136;28;20051;-73
2022/06/10 13:27:43;;;;;;;6.47;2.30;;;;;;;;;;4966364;28;20046;-71
2022/06/10 13:30:13;;;;;;;8.20;2.10;;;;;;;;;;4964098;28;20054;-71
2022/06/10 13:32:56;;;;;;;9.10;2.50;;;;;;;;;;4968536;28;20047;-70
2022/06/10 13:35:26;;;;;;;10.50;1.92;;;;;;;;;;4970075;28;20054;-72
2022/06/10 13:37:59;;;;;;;8.80;2.45;;;;;;;;;;4966375;28;20511;-69
2022/06/10 13:40:28;;;;;;;6.63;2.50;;;;;;;;;;4968932;28;20046;-73
2022/06/10 13:42:59;;;;;;;8.80;2.30;;;;;;;;;;4969543;28;20061;-71
2022/06/10 13:45:31;;;;;;;8.60;2.40;;;;;;;;;;4969968;28;20485;-72
2022/06/10 13:48:02;;;;;;;7.38;2.60;;;;;;;;;;4965213;28;20058;-73
2022/06/10 13:53:34;;;;;;;8.05;2.40;;;;;;;;;;4968341;28;20050;-73
2022/06/10 13:56:01;;;;;;;;;;;;;;;;;;4969244;28;20047;-70
2022/06/10 13:58:30;;;;;;;9.05;2.42;;;;;;;;;;4968290;28;19929;-72
2022/06/10 14:01:13;;;;;;;8.18;2.25;;;;;;;;;;4963458;28;20050;-71
2022/06/10 14:03:50;;;;;;;9.13;2.13;;;;;;;;;;4962767;28;20066;-71
2022/06/10 14:06:16;;;;;;;7.78;2.13;;;;;;;;;;4965651;28;20066;-69
2022/06/10 14:08:47;;;;;;;10.52;2.63;;;;;;;;;;4954522;28;20039;-71
2022/06/10 14:11:30;;;;;;;9.68;2.10;;;;;;;;;;4965782;28;20141;-71
2022/06/10 14:14:04;;;;;;;9.35;2.33;;;;;;;;;;4963393;28;20437;-72
2022/06/10 14:16:31;;;;;;;13.70;2.95;;;;;;;;;;4959160;28;20094;-71
2022/06/10 14:19:00;;;;;;;9.55;2.00;;;;;;;;;;4965892;28;20455;-70
2022/06/10 14:21:29;;;;;;;8.75;2.60;;;;;;;;;;4962988;28;20043;-73
2022/06/10 14:24:05;;;;;;;9.20;2.60;;;;;;;;;;4967991;28;20129;-72
2022/06/10 14:26:35;;;;;;;8.93;2.38;;;;;;;;;;4962730;28;20050;-71
2022/06/10 14:29:27;;;;;;;14.25;2.60;;;;;;;;;;4966251;28;20117;-71
2022/06/10 14:32:18;;;;;;;9.38;2.35;;;;;;;;;;4963594;28;20055;-71
2022/06/10 14:34:45;;;;;;;8.73;2.13;;;;;;;;;;4960225;28;20042;-71
2022/06/10 14:37:43;;;;;;;9.80;2.50;;;;;;;;;;4965422;28;20061;-70
2022/06/10 14:40:22;;;;;;;11.98;2.90;;;;;;;;;;4950604;28;20050;-70
2022/06/10 14:43:16;;;;;;;9.60;2.50;;;;;;;;;;4965574;28;20472;-69
2022/06/10 14:45:44;;;;;;;12.40;3.00;;;;;;;;;;4953712;28;20516;-69
2022/06/10 14:48:13;;;;;;;13.73;3.20;;;;;;;;;;4965102;28;20571;-71
2022/06/10 14:50:45;;;;;;;10.25;2.60;;;;;;;;;;4967038;28;20050;-71
2022/06/10 14:53:20;;;;;;;13.68;3.15;;;;;;;;;;4966630;28;20061;-72
2022/06/10 14:55:48;;;;;;;16.95;2.88;;;;;;;;;;4955526;28;20126;-72
2022/06/10 14:58:17;;;;;;;10.43;2.53;;;;;;;;;;4966608;28;20074;-71
2022/06/10 15:00:46;;;;;;;11.80;2.67;;;;;;;;;;4968115;28;20058;-70
2022/06/10 15:03:24;;;;;;;12.15;2.80;;;;;;;;;;4967530;28;20059;-70
2022/06/10 15:06:17;;;;;;;16.65;3.25;;;;;;;;;;4966754;28;20058;-69
2022/06/10 15:08:57;;;;;;;11.73;3.05;;;;;;;;;;4966933;28;20101;-70
2022/06/10 15:11:27;;;;;;;12.77;3.10;;;;;;;;;;4965861;28;20050;-71
2022/06/10 15:13:53;;;;;;;13.52;3.05;;;;;;;;;;4965542;28;20062;-70
2022/06/10 15:16:20;;;;;;;10.95;2.80;;;;;;;;;;4966934;28;20149;-70
2022/06/10 15:18:47;;;;;;;15.60;3.20;;;;;;;;;;4965011;28;20064;-70
2022/06/10 15:21:18;;;;;;;13.52;3.75;;;;;;;;;;4967119;28;20548;-69
2022/06/10 15:23:47;;;;;;;12.55;2.92;;;;;;;;;;4960736;28;20484;-71
2022/06/10 15:26:16;;;;;;;14.27;2.97;;;;;;;;;;4967409;28;20161;-71
2022/06/10 15:28:42;;;;;;;12.15;2.55;;;;;;;;;;4967968;28;20546;-70